EGNV/MME METAR and TAF weather

Enter ICAO airport designator
Station Type Date Time Source
EGNV METAR 2022/05/26 05:20 UTC NOAA

EGNV 260520Z 22011KT 9999 FEW020 SCT038 12/07 Q1014


Station Type Date Time Source
EGNV Decoded METAR 2022/05/26 05:20 UTC NOAA

Tees-Side, United Kingdom (EGNV) 54-31N 001-25W
May 26, 2022 - 01:20 AM EDT / 2022.05.26 0520 UTC
Wind: from the SW (220 degrees) at 13 MPH (11 KT):0
Visibility: greater than 7 mile(s):0
Sky conditions: partly cloudy
Temperature: 53 F (12 C)
Dew Point: 44 F (7 C)
Relative Humidity: 71%
Pressure (altimeter): 29.94 in. Hg (1014 hPa)
ob: EGNV 260520Z 22011KT 9999 FEW020 SCT038 12/07 Q1014
cycle: 5

Station Type Date Time Source
EGNV TAF 2022/05/08 18:30 UTC NOAA

TAF TAF EGNV 081727Z 0818/0921 CNL

Example: see airport list